Sacramento, California
Traffic Map
Current Weather Conditions
Sacramento, California
Clear
Clear
66°
Feels Like: 66°
Wind Chill: 66° Ceiling: Unl
Heat Index: 66° Visibility: 10mi
Dew Point: 41° Wind: 23mph
Humidity: 40% Direction: 330° (NNW)
Pressure: 30.17in Gusts: 31mph
Raw Report DataKSAC 281853Z 33020G27KT 10SM CLR 19/05 A3017 RMK AO2 PK WND 34027/1845 SLP217 T01890050
Traffic Incident Summary
Active as of:
Severity:
Category:
InformationThere was an issue retrieving the traffic information for this location. Please try a different location or try again shortly.
Advertisements
Track Severe Weather on mobile